sensor_id;sensor_type;location;lat;lon;timestamp;P1;durP1;ratioP1;P2;durP2;ratioP2
45970;SDS011;31681;48.982;8.394;2022-09-21T00:01:03;2.60;;;1.83;;
45970;SDS011;31681;48.982;8.394;2022-09-21T00:03:28;2.30;;;1.65;;
45970;SDS011;31681;48.982;8.394;2022-09-21T00:06:00;2.85;;;1.95;;
45970;SDS011;31681;48.982;8.394;2022-09-21T00:08:25;2.80;;;1.87;;
45970;SDS011;31681;48.982;8.394;2022-09-21T00:10:50;2.70;;;1.83;;
45970;SDS011;31681;48.982;8.394;2022-09-21T00:13:16;3.40;;;1.90;;
45970;SDS011;31681;48.982;8.394;2022-09-21T00:15:43;1.35;;;1.20;;
45970;SDS011;31681;48.982;8.394;2022-09-21T00:18:08;2.77;;;1.60;;
45970;SDS011;31681;48.982;8.394;2022-09-21T00:20:33;3.33;;;2.37;;
45970;SDS011;31681;48.982;8.394;2022-09-21T00:22:59;2.65;;;1.48;;
45970;SDS011;31681;48.982;8.394;2022-09-21T00:25:24;1.73;;;1.43;;
45970;SDS011;31681;48.982;8.394;2022-09-21T00:27:49;3.00;;;1.30;;
45970;SDS011;31681;48.982;8.394;2022-09-21T00:30:15;1.80;;;1.63;;
45970;SDS011;31681;48.982;8.394;2022-09-21T00:32:40;1.43;;;1.20;;
45970;SDS011;31681;48.982;8.394;2022-09-21T00:35:06;2.90;;;1.83;;
45970;SDS011;31681;48.982;8.394;2022-09-21T00:37:32;2.33;;;1.73;;
45970;SDS011;31681;48.982;8.394;2022-09-21T00:39:57;2.50;;;2.07;;
45970;SDS011;31681;48.982;8.394;2022-09-21T00:42:23;3.30;;;2.13;;
45970;SDS011;31681;48.982;8.394;2022-09-21T00:44:49;5.93;;;3.03;;
45970;SDS011;31681;48.982;8.394;2022-09-21T00:47:21;6.47;;;3.10;;
45970;SDS011;31681;48.982;8.394;2022-09-21T00:49:49;4.30;;;2.67;;
45970;SDS011;31681;48.982;8.394;2022-09-21T00:52:15;4.63;;;2.73;;
45970;SDS011;31681;48.982;8.394;2022-09-21T00:54:43;4.40;;;3.37;;
45970;SDS011;31681;48.982;8.394;2022-09-21T00:57:09;9.30;;;3.67;;
45970;SDS011;31681;48.982;8.394;2022-09-21T00:59:35;6.53;;;3.23;;
45970;SDS011;31681;48.982;8.394;2022-09-21T01:02:01;6.80;;;2.77;;
45970;SDS011;31681;48.982;8.394;2022-09-21T01:04:27;3.63;;;2.43;;
45970;SDS011;31681;48.982;8.394;2022-09-21T01:06:53;2.27;;;1.47;;
45970;SDS011;31681;48.982;8.394;2022-09-21T01:09:18;2.17;;;1.60;;
45970;SDS011;31681;48.982;8.394;2022-09-21T01:11:50;3.10;;;1.90;;
45970;SDS011;31681;48.982;8.394;2022-09-21T01:17:05;6.40;;;2.70;;
45970;SDS011;31681;48.982;8.394;2022-09-21T01:22:19;3.33;;;2.50;;
45970;SDS011;31681;48.982;8.394;2022-09-21T01:24:48;2.33;;;2.00;;
45970;SDS011;31681;48.982;8.394;2022-09-21T01:30:17;2.23;;;1.40;;
45970;SDS011;31681;48.982;8.394;2022-09-21T01:32:58;3.03;;;1.90;;
45970;SDS011;31681;48.982;8.394;2022-09-21T01:35:27;3.13;;;1.37;;
45970;SDS011;31681;48.982;8.394;2022-09-21T01:37:56;2.20;;;1.43;;
45970;SDS011;31681;48.982;8.394;2022-09-21T01:40:25;1.87;;;1.60;;
45970;SDS011;31681;48.982;8.394;2022-09-21T01:42:52;2.37;;;1.43;;
45970;SDS011;31681;48.982;8.394;2022-09-21T01:45:20;1.83;;;1.40;;
45970;SDS011;31681;48.982;8.394;2022-09-21T01:47:46;2.33;;;1.40;;
45970;SDS011;31681;48.982;8.394;2022-09-21T01:50:12;1.80;;;1.43;;
45970;SDS011;31681;48.982;8.394;2022-09-21T01:52:39;2.93;;;1.63;;
45970;SDS011;31681;48.982;8.394;2022-09-21T01:55:08;3.27;;;1.93;;
45970;SDS011;31681;48.982;8.394;2022-09-21T02:00:03;1.73;;;1.20;;
45970;SDS011;31681;48.982;8.394;2022-09-21T02:02:33;1.90;;;1.57;;
45970;SDS011;31681;48.982;8.394;2022-09-21T02:05:00;3.03;;;1.70;;
45970;SDS011;31681;48.982;8.394;2022-09-21T02:07:25;1.70;;;1.53;;
45970;SDS011;31681;48.982;8.394;2022-09-21T02:09:51;1.73;;;1.63;;
45970;SDS011;31681;48.982;8.394;2022-09-21T02:12:19;4.93;;;1.90;;
45970;SDS011;31681;48.982;8.394;2022-09-21T02:14:44;2.40;;;1.57;;
45970;SDS011;31681;48.982;8.394;2022-09-21T02:17:23;2.50;;;2.13;;
45970;SDS011;31681;48.982;8.394;2022-09-21T02:19:56;2.13;;;1.47;;
45970;SDS011;31681;48.982;8.394;2022-09-21T02:22:46;3.37;;;1.87;;
45970;SDS011;31681;48.982;8.394;2022-09-21T02:25:17;4.07;;;1.93;;
45970;SDS011;31681;48.982;8.394;2022-09-21T02:27:49;2.70;;;1.90;;
45970;SDS011;31681;48.982;8.394;2022-09-21T02:30:17;2.57;;;1.53;;
45970;SDS011;31681;48.982;8.394;2022-09-21T02:32:48;4.23;;;1.50;;
45970;SDS011;31681;48.982;8.394;2022-09-21T02:35:20;4.13;;;1.90;;
45970;SDS011;31681;48.982;8.394;2022-09-21T02:37:52;3.80;;;1.70;;
45970;SDS011;31681;48.982;8.394;2022-09-21T02:40:22;1.73;;;1.37;;
45970;SDS011;31681;48.982;8.394;2022-09-21T02:43:02;2.40;;;1.80;;
45970;SDS011;31681;48.982;8.394;2022-09-21T02:45:30;2.17;;;1.60;;
45970;SDS011;31681;48.982;8.394;2022-09-21T02:48:07;1.60;;;1.50;;
45970;SDS011;31681;48.982;8.394;2022-09-21T02:50:41;2.93;;;1.93;;
45970;SDS011;31681;48.982;8.394;2022-09-21T02:53:08;2.43;;;1.57;;
45970;SDS011;31681;48.982;8.394;2022-09-21T02:55:34;3.20;;;2.00;;
45970;SDS011;31681;48.982;8.394;2022-09-21T02:58:03;1.73;;;1.37;;
45970;SDS011;31681;48.982;8.394;2022-09-21T03:00:30;3.37;;;1.33;;
45970;SDS011;31681;48.982;8.394;2022-09-21T03:02:55;2.80;;;1.47;;
45970;SDS011;31681;48.982;8.394;2022-09-21T03:05:20;1.60;;;1.50;;
45970;SDS011;31681;48.982;8.394;2022-09-21T03:07:45;1.90;;;1.60;;
45970;SDS011;31681;48.982;8.394;2022-09-21T03:10:11;1.80;;;1.47;;
45970;SDS011;31681;48.982;8.394;2022-09-21T03:12:36;3.17;;;2.07;;
45970;SDS011;31681;48.982;8.394;2022-09-21T03:15:01;1.77;;;1.40;;
45970;SDS011;31681;48.982;8.394;2022-09-21T03:17:27;1.73;;;1.60;;
45970;SDS011;31681;48.982;8.394;2022-09-21T03:19:52;2.17;;;1.70;;
45970;SDS011;31681;48.982;8.394;2022-09-21T03:22:19;1.60;;;1.50;;
45970;SDS011;31681;48.982;8.394;2022-09-21T03:24:45;1.70;;;1.30;;
45970;SDS011;31681;48.982;8.394;2022-09-21T03:27:11;2.30;;;2.00;;
45970;SDS011;31681;48.982;8.394;2022-09-21T03:29:36;2.27;;;1.20;;
45970;SDS011;31681;48.982;8.394;2022-09-21T03:32:01;3.33;;;1.87;;
45970;SDS011;31681;48.982;8.394;2022-09-21T03:34:27;2.77;;;2.13;;
45970;SDS011;31681;48.982;8.394;2022-09-21T03:36:52;1.40;;;1.30;;
45970;SDS011;31681;48.982;8.394;2022-09-21T03:39:17;2.70;;;1.70;;
45970;SDS011;31681;48.982;8.394;2022-09-21T03:41:43;3.60;;;1.97;;
45970;SDS011;31681;48.982;8.394;2022-09-21T03:44:08;2.00;;;1.57;;
45970;SDS011;31681;48.982;8.394;2022-09-21T03:46:33;3.53;;;1.50;;
45970;SDS011;31681;48.982;8.394;2022-09-21T03:48:59;3.50;;;2.17;;
45970;SDS011;31681;48.982;8.394;2022-09-21T03:51:25;2.27;;;1.83;;
45970;SDS011;31681;48.982;8.394;2022-09-21T03:53:50;1.57;;;1.40;;
45970;SDS011;31681;48.982;8.394;2022-09-21T03:56:15;2.07;;;1.87;;
45970;SDS011;31681;48.982;8.394;2022-09-21T03:58:40;2.87;;;1.90;;
45970;SDS011;31681;48.982;8.394;2022-09-21T04:01:05;2.97;;;1.70;;
45970;SDS011;31681;48.982;8.394;2022-09-21T04:03:30;2.80;;;1.63;;
45970;SDS011;31681;48.982;8.394;2022-09-21T04:05:56;2.40;;;2.03;;
45970;SDS011;31681;48.982;8.394;2022-09-21T04:08:21;2.73;;;1.97;;
45970;SDS011;31681;48.982;8.394;2022-09-21T04:10:46;2.20;;;2.00;;
45970;SDS011;31681;48.982;8.394;2022-09-21T04:13:12;2.73;;;1.83;;
45970;SDS011;31681;48.982;8.394;2022-09-21T04:15:37;1.83;;;1.63;;
45970;SDS011;31681;48.982;8.394;2022-09-21T04:18:02;3.10;;;1.93;;
45970;SDS011;31681;48.982;8.394;2022-09-21T04:20:29;4.10;;;2.00;;
45970;SDS011;31681;48.982;8.394;2022-09-21T04:22:55;1.57;;;1.40;;
45970;SDS011;31681;48.982;8.394;2022-09-21T04:25:20;3.07;;;2.00;;
45970;SDS011;31681;48.982;8.394;2022-09-21T04:27:45;3.37;;;2.00;;
45970;SDS011;31681;48.982;8.394;2022-09-21T04:30:11;1.93;;;1.73;;
45970;SDS011;31681;48.982;8.394;2022-09-21T04:32:37;2.47;;;1.60;;
45970;SDS011;31681;48.982;8.394;2022-09-21T04:35:02;1.70;;;1.60;;
45970;SDS011;31681;48.982;8.394;2022-09-21T04:37:28;1.93;;;1.53;;
45970;SDS011;31681;48.982;8.394;2022-09-21T04:39:53;2.63;;;1.60;;
45970;SDS011;31681;48.982;8.394;2022-09-21T04:42:18;4.10;;;1.70;;
45970;SDS011;31681;48.982;8.394;2022-09-21T04:44:43;2.37;;;1.60;;
45970;SDS011;31681;48.982;8.394;2022-09-21T04:47:08;3.30;;;2.00;;
45970;SDS011;31681;48.982;8.394;2022-09-21T04:49:34;3.27;;;1.93;;
45970;SDS011;31681;48.982;8.394;2022-09-21T04:51:59;3.63;;;1.53;;
45970;SDS011;31681;48.982;8.394;2022-09-21T04:54:24;1.83;;;1.40;;
45970;SDS011;31681;48.982;8.394;2022-09-21T04:56:49;2.60;;;1.80;;
45970;SDS011;31681;48.982;8.394;2022-09-21T04:59:14;1.97;;;1.43;;
45970;SDS011;31681;48.982;8.394;2022-09-21T05:01:40;2.23;;;1.70;;
45970;SDS011;31681;48.982;8.394;2022-09-21T05:04:05;3.73;;;1.83;;
45970;SDS011;31681;48.982;8.394;2022-09-21T05:06:31;2.73;;;1.67;;
45970;SDS011;31681;48.982;8.394;2022-09-21T05:08:57;2.40;;;1.60;;
45970;SDS011;31681;48.982;8.394;2022-09-21T05:11:40;2.33;;;1.87;;
45970;SDS011;31681;48.982;8.394;2022-09-21T05:14:06;3.50;;;1.67;;
45970;SDS011;31681;48.982;8.394;2022-09-21T05:16:31;2.60;;;1.53;;
45970;SDS011;31681;48.982;8.394;2022-09-21T05:18:57;2.13;;;1.60;;
45970;SDS011;31681;48.982;8.394;2022-09-21T05:21:22;2.83;;;2.00;;
45970;SDS011;31681;48.982;8.394;2022-09-21T05:23:47;2.57;;;1.73;;
45970;SDS011;31681;48.982;8.394;2022-09-21T05:26:12;2.20;;;1.63;;
45970;SDS011;31681;48.982;8.394;2022-09-21T05:28:38;3.63;;;1.60;;
45970;SDS011;31681;48.982;8.394;2022-09-21T05:31:08;2.70;;;1.70;;
45970;SDS011;31681;48.982;8.394;2022-09-21T05:33:36;2.07;;;1.80;;
45970;SDS011;31681;48.982;8.394;2022-09-21T05:38:29;4.87;;;2.10;;
45970;SDS011;31681;48.982;8.394;2022-09-21T05:40:54;3.77;;;2.03;;
45970;SDS011;31681;48.982;8.394;2022-09-21T05:43:19;1.77;;;1.50;;
45970;SDS011;31681;48.982;8.394;2022-09-21T05:45:45;3.60;;;2.33;;
45970;SDS011;31681;48.982;8.394;2022-09-21T05:48:16;5.70;;;2.33;;
45970;SDS011;31681;48.982;8.394;2022-09-21T05:53:25;2.30;;;1.60;;
45970;SDS011;31681;48.982;8.394;2022-09-21T05:58:20;2.77;;;1.80;;
45970;SDS011;31681;48.982;8.394;2022-09-21T06:03:28;2.87;;;2.20;;
45970;SDS011;31681;48.982;8.394;2022-09-21T06:05:53;2.00;;;1.37;;
45970;SDS011;31681;48.982;8.394;2022-09-21T06:08:19;2.17;;;1.83;;
45970;SDS011;31681;48.982;8.394;2022-09-21T06:10:44;3.73;;;2.07;;
45970;SDS011;31681;48.982;8.394;2022-09-21T06:13:09;3.90;;;1.30;;
45970;SDS011;31681;48.982;8.394;2022-09-21T06:15:35;3.50;;;2.13;;
45970;SDS011;31681;48.982;8.394;2022-09-21T06:18:02;2.40;;;1.83;;
45970;SDS011;31681;48.982;8.394;2022-09-21T06:20:28;2.83;;;1.77;;
45970;SDS011;31681;48.982;8.394;2022-09-21T06:22:58;1.23;;;1.13;;
45970;SDS011;31681;48.982;8.394;2022-09-21T06:25:23;2.37;;;1.67;;
45970;SDS011;31681;48.982;8.394;2022-09-21T06:27:48;3.13;;;2.00;;
45970;SDS011;31681;48.982;8.394;2022-09-21T06:30:14;4.03;;;1.70;;
45970;SDS011;31681;48.982;8.394;2022-09-21T06:32:39;3.07;;;1.70;;
45970;SDS011;31681;48.982;8.394;2022-09-21T06:35:04;2.30;;;1.80;;
45970;SDS011;31681;48.982;8.394;2022-09-21T06:37:29;2.57;;;1.53;;
45970;SDS011;31681;48.982;8.394;2022-09-21T06:39:55;3.93;;;2.20;;
45970;SDS011;31681;48.982;8.394;2022-09-21T06:42:20;3.53;;;2.00;;
45970;SDS011;31681;48.982;8.394;2022-09-21T06:44:45;3.00;;;2.07;;
45970;SDS011;31681;48.982;8.394;2022-09-21T06:47:10;5.73;;;2.53;;
45970;SDS011;31681;48.982;8.394;2022-09-21T06:49:35;2.17;;;1.80;;
45970;SDS011;31681;48.982;8.394;2022-09-21T06:52:00;2.90;;;2.22;;
45970;SDS011;31681;48.982;8.394;2022-09-21T06:54:26;4.13;;;2.53;;
45970;SDS011;31681;48.982;8.394;2022-09-21T06:56:51;3.23;;;2.10;;
45970;SDS011;31681;48.982;8.394;2022-09-21T06:59:16;7.23;;;1.90;;
45970;SDS011;31681;48.982;8.394;2022-09-21T07:01:41;2.15;;;1.80;;
45970;SDS011;31681;48.982;8.394;2022-09-21T07:04:06;4.35;;;1.83;;
45970;SDS011;31681;48.982;8.394;2022-09-21T07:06:33;4.90;;;2.30;;
45970;SDS011;31681;48.982;8.394;2022-09-21T07:08:58;3.10;;;2.65;;
45970;SDS011;31681;48.982;8.394;2022-09-21T07:11:23;7.05;;;2.80;;
45970;SDS011;31681;48.982;8.394;2022-09-21T07:13:49;5.80;;;1.98;;
45970;SDS011;31681;48.982;8.394;2022-09-21T07:16:14;3.08;;;2.10;;
45970;SDS011;31681;48.982;8.394;2022-09-21T07:18:40;2.83;;;2.00;;
45970;SDS011;31681;48.982;8.394;2022-09-21T07:21:06;6.20;;;1.98;;
45970;SDS011;31681;48.982;8.394;2022-09-21T07:23:32;4.32;;;2.20;;
45970;SDS011;31681;48.982;8.394;2022-09-21T07:26:02;3.72;;;2.03;;
45970;SDS011;31681;48.982;8.394;2022-09-21T07:28:27;2.65;;;2.30;;
45970;SDS011;31681;48.982;8.394;2022-09-21T07:30:53;2.83;;;2.28;;
45970;SDS011;31681;48.982;8.394;2022-09-21T07:33:18;4.00;;;1.80;;
45970;SDS011;31681;48.982;8.394;2022-09-21T07:35:52;4.60;;;2.90;;
45970;SDS011;31681;48.982;8.394;2022-09-21T07:38:20;3.80;;;1.73;;
45970;SDS011;31681;48.982;8.394;2022-09-21T07:40:45;3.88;;;2.03;;
45970;SDS011;31681;48.982;8.394;2022-09-21T07:43:11;3.25;;;2.40;;
45970;SDS011;31681;48.982;8.394;2022-09-21T07:45:36;2.00;;;1.58;;
45970;SDS011;31681;48.982;8.394;2022-09-21T07:48:02;6.57;;;3.33;;
45970;SDS011;31681;48.982;8.394;2022-09-21T07:50:27;4.95;;;2.40;;
45970;SDS011;31681;48.982;8.394;2022-09-21T07:52:52;3.25;;;2.15;;
45970;SDS011;31681;48.982;8.394;2022-09-21T07:55:18;6.17;;;2.67;;
45970;SDS011;31681;48.982;8.394;2022-09-21T07:57:43;2.42;;;2.17;;
45970;SDS011;31681;48.982;8.394;2022-09-21T08:00:26;5.15;;;2.65;;
45970;SDS011;31681;48.982;8.394;2022-09-21T08:02:56;4.32;;;2.65;;
45970;SDS011;31681;48.982;8.394;2022-09-21T08:05:21;3.00;;;2.22;;
45970;SDS011;31681;48.982;8.394;2022-09-21T08:07:46;5.90;;;2.65;;
45970;SDS011;31681;48.982;8.394;2022-09-21T08:10:12;5.22;;;2.45;;
45970;SDS011;31681;48.982;8.394;2022-09-21T08:12:37;2.50;;;2.25;;
45970;SDS011;31681;48.982;8.394;2022-09-21T08:15:02;4.03;;;2.78;;
45970;SDS011;31681;48.982;8.394;2022-09-21T08:17:28;6.53;;;2.88;;
45970;SDS011;31681;48.982;8.394;2022-09-21T08:19:53;4.38;;;3.22;;
45970;SDS011;31681;48.982;8.394;2022-09-21T08:22:19;2.97;;;2.45;;
45970;SDS011;31681;48.982;8.394;2022-09-21T08:24:48;5.38;;;2.78;;
45970;SDS011;31681;48.982;8.394;2022-09-21T08:27:13;5.90;;;3.00;;
45970;SDS011;31681;48.982;8.394;2022-09-21T08:29:38;5.70;;;3.10;;
45970;SDS011;31681;48.982;8.394;2022-09-21T08:32:04;5.90;;;2.95;;
45970;SDS011;31681;48.982;8.394;2022-09-21T08:34:29;5.80;;;3.15;;
45970;SDS011;31681;48.982;8.394;2022-09-21T08:36:54;4.70;;;2.80;;
45970;SDS011;31681;48.982;8.394;2022-09-21T08:39:19;3.70;;;2.47;;
45970;SDS011;31681;48.982;8.394;2022-09-21T08:41:51;4.45;;;2.63;;
45970;SDS011;31681;48.982;8.394;2022-09-21T08:44:20;5.32;;;2.63;;
45970;SDS011;31681;48.982;8.394;2022-09-21T08:46:47;4.60;;;3.08;;
45970;SDS011;31681;48.982;8.394;2022-09-21T08:49:18;4.60;;;3.20;;
45970;SDS011;31681;48.982;8.394;2022-09-21T08:52:08;4.35;;;2.97;;
45970;SDS011;31681;48.982;8.394;2022-09-21T08:57:00;5.78;;;3.25;;
45970;SDS011;31681;48.982;8.394;2022-09-21T08:59:25;5.20;;;2.70;;
45970;SDS011;31681;48.982;8.394;2022-09-21T09:07:15;4.20;;;2.65;;
45970;SDS011;31681;48.982;8.394;2022-09-21T09:17:30;5.03;;;2.67;;
45970;SDS011;31681;48.982;8.394;2022-09-21T09:22:26;5.07;;;3.90;;
45970;SDS011;31681;48.982;8.394;2022-09-21T09:24:54;3.15;;;2.20;;
45970;SDS011;31681;48.982;8.394;2022-09-21T09:29:50;4.03;;;2.30;;
45970;SDS011;31681;48.982;8.394;2022-09-21T09:32:18;2.85;;;2.13;;
45970;SDS011;31681;48.982;8.394;2022-09-21T09:34:51;3.80;;;2.08;;
45970;SDS011;31681;48.982;8.394;2022-09-21T09:37:17;4.53;;;2.03;;
45970;SDS011;31681;48.982;8.394;2022-09-21T09:39:46;1.85;;;1.55;;
45970;SDS011;31681;48.982;8.394;2022-09-21T09:52:47;2.00;;;1.30;;
45970;SDS011;31681;48.982;8.394;2022-09-21T09:57:38;2.40;;;1.05;;
45970;SDS011;31681;48.982;8.394;2022-09-21T10:00:05;1.40;;;1.20;;
45970;SDS011;31681;48.982;8.394;2022-09-21T10:02:44;1.67;;;1.42;;
45970;SDS011;31681;48.982;8.394;2022-09-21T10:05:17;2.67;;;1.10;;
45970;SDS011;31681;48.982;8.394;2022-09-21T10:07:44;3.25;;;1.10;;
45970;SDS011;31681;48.982;8.394;2022-09-21T10:12:52;1.42;;;1.17;;
45970;SDS011;31681;48.982;8.394;2022-09-21T10:15:18;1.08;;;0.93;;
45970;SDS011;31681;48.982;8.394;2022-09-21T10:17:44;2.58;;;1.70;;
45970;SDS011;31681;48.982;8.394;2022-09-21T10:20:15;1.48;;;1.15;;
45970;SDS011;31681;48.982;8.394;2022-09-21T10:22:42;2.17;;;0.95;;
45970;SDS011;31681;48.982;8.394;2022-09-21T10:25:14;1.35;;;1.25;;
45970;SDS011;31681;48.982;8.394;2022-09-21T10:27:41;2.90;;;1.10;;
45970;SDS011;31681;48.982;8.394;2022-09-21T10:30:16;3.50;;;1.00;;
45970;SDS011;31681;48.982;8.394;2022-09-21T10:32:53;0.85;;;0.80;;
45970;SDS011;31681;48.982;8.394;2022-09-21T10:35:19;1.42;;;0.80;;
45970;SDS011;31681;48.982;8.394;2022-09-21T10:37:45;1.92;;;0.85;;
45970;SDS011;31681;48.982;8.394;2022-09-21T10:42:43;2.13;;;0.88;;
45970;SDS011;31681;48.982;8.394;2022-09-21T10:50:22;1.48;;;0.80;;
45970;SDS011;31681;48.982;8.394;2022-09-21T10:52:47;1.00;;;0.73;;
45970;SDS011;31681;48.982;8.394;2022-09-21T10:55:14;2.70;;;1.17;;
45970;SDS011;31681;48.982;8.394;2022-09-21T10:57:40;1.65;;;0.95;;
45970;SDS011;31681;48.982;8.394;2022-09-21T11:00:26;1.52;;;0.90;;
45970;SDS011;31681;48.982;8.394;2022-09-21T11:03:00;1.83;;;0.93;;
45970;SDS011;31681;48.982;8.394;2022-09-21T11:05:26;1.10;;;0.90;;
45970;SDS011;31681;48.982;8.394;2022-09-21T11:13:01;1.08;;;0.90;;
45970;SDS011;31681;48.982;8.394;2022-09-21T11:15:37;1.27;;;0.65;;
45970;SDS011;31681;48.982;8.394;2022-09-21T11:20:42;1.95;;;0.80;;
45970;SDS011;31681;48.982;8.394;2022-09-21T11:25:42;1.42;;;0.60;;
45970;SDS011;31681;48.982;8.394;2022-09-21T11:31:01;1.48;;;1.00;;
45970;SDS011;31681;48.982;8.394;2022-09-21T11:36:17;0.73;;;0.73;;
45970;SDS011;31681;48.982;8.394;2022-09-21T11:46:45;1.58;;;0.80;;
45970;SDS011;31681;48.982;8.394;2022-09-21T11:52:40;1.08;;;0.70;;
45970;SDS011;31681;48.982;8.394;2022-09-21T12:00:21;0.75;;;0.75;;
45970;SDS011;31681;48.982;8.394;2022-09-21T12:08:16;0.57;;;0.57;;
45970;SDS011;31681;48.982;8.394;2022-09-21T12:13:31;1.02;;;0.50;;
45970;SDS011;31681;48.982;8.394;2022-09-21T12:18:43;0.65;;;0.50;;
45970;SDS011;31681;48.982;8.394;2022-09-21T12:21:33;0.47;;;0.47;;
45970;SDS011;31681;48.982;8.394;2022-09-21T12:24:03;0.60;;;0.60;;
45970;SDS011;31681;48.982;8.394;2022-09-21T12:26:36;0.88;;;0.60;;
45970;SDS011;31681;48.982;8.394;2022-09-21T12:29:04;0.60;;;0.60;;
45970;SDS011;31681;48.982;8.394;2022-09-21T12:31:39;2.53;;;0.93;;
45970;SDS011;31681;48.982;8.394;2022-09-21T12:34:14;1.77;;;0.60;;
45970;SDS011;31681;48.982;8.394;2022-09-21T12:36:44;1.30;;;0.55;;
45970;SDS011;31681;48.982;8.394;2022-09-21T12:44:14;1.35;;;0.40;;
45970;SDS011;31681;48.982;8.394;2022-09-21T12:47:14;0.85;;;0.50;;
45970;SDS011;31681;48.982;8.394;2022-09-21T12:49:37;0.90;;;0.63;;
45970;SDS011;31681;48.982;8.394;2022-09-21T12:52:04;2.88;;;0.57;;
45970;SDS011;31681;48.982;8.394;2022-09-21T12:54:42;1.05;;;0.50;;
45970;SDS011;31681;48.982;8.394;2022-09-21T12:59:44;0.40;;;0.40;;
45970;SDS011;31681;48.982;8.394;2022-09-21T13:07:44;1.00;;;0.63;;
45970;SDS011;31681;48.982;8.394;2022-09-21T13:10:17;1.67;;;0.60;;
45970;SDS011;31681;48.982;8.394;2022-09-21T13:12:43;0.95;;;0.60;;
45970;SDS011;31681;48.982;8.394;2022-09-21T13:17:42;1.88;;;0.65;;
45970;SDS011;31681;48.982;8.394;2022-09-21T13:20:17;0.98;;;0.73;;
45970;SDS011;31681;48.982;8.394;2022-09-21T13:22:43;0.95;;;0.52;;
45970;SDS011;31681;48.982;8.394;2022-09-21T13:25:20;2.05;;;0.57;;
45970;SDS011;31681;48.982;8.394;2022-09-21T13:30:40;0.30;;;0.30;;
45970;SDS011;31681;48.982;8.394;2022-09-21T13:34:04;1.58;;;0.93;;
45970;SDS011;31681;48.982;8.394;2022-09-21T13:40:49;1.33;;;0.90;;
45970;SDS011;31681;48.982;8.394;2022-09-21T13:43:20;0.50;;;0.50;;
45970;SDS011;31681;48.982;8.394;2022-09-21T13:45:48;2.78;;;0.90;;
45970;SDS011;31681;48.982;8.394;2022-09-21T13:48:31;0.52;;;0.45;;
45970;SDS011;31681;48.982;8.394;2022-09-21T13:50:59;0.70;;;0.70;;
45970;SDS011;31681;48.982;8.394;2022-09-21T13:53:28;1.52;;;0.63;;
45970;SDS011;31681;48.982;8.394;2022-09-21T13:55:59;0.50;;;0.50;;
45970;SDS011;31681;48.982;8.394;2022-09-21T13:58:31;0.60;;;0.50;;
45970;SDS011;31681;48.982;8.394;2022-09-21T14:00:59;0.65;;;0.60;;
45970;SDS011;31681;48.982;8.394;2022-09-21T14:03:26;0.93;;;0.80;;
45970;SDS011;31681;48.982;8.394;2022-09-21T14:05:59;0.60;;;0.50;;
45970;SDS011;31681;48.982;8.394;2022-09-21T14:08:30;0.82;;;0.57;;
45970;SDS011;31681;48.982;8.394;2022-09-21T14:13:33;0.73;;;0.60;;
45970;SDS011;31681;48.982;8.394;2022-09-21T14:16:23;0.90;;;0.60;;
45970;SDS011;31681;48.982;8.394;2022-09-21T14:18:58;0.50;;;0.50;;
45970;SDS011;31681;48.982;8.394;2022-09-21T14:21:24;0.82;;;0.65;;
45970;SDS011;31681;48.982;8.394;2022-09-21T14:29:19;0.80;;;0.50;;
45970;SDS011;31681;48.982;8.394;2022-09-21T14:31:45;1.52;;;0.60;;
45970;SDS011;31681;48.982;8.394;2022-09-21T14:34:12;2.25;;;0.50;;
45970;SDS011;31681;48.982;8.394;2022-09-21T14:36:41;1.80;;;0.65;;
45970;SDS011;31681;48.982;8.394;2022-09-21T14:39:42;0.65;;;0.50;;
45970;SDS011;31681;48.982;8.394;2022-09-21T14:42:15;0.40;;;0.40;;
45970;SDS011;31681;48.982;8.394;2022-09-21T14:44:43;0.50;;;0.50;;
45970;SDS011;31681;48.982;8.394;2022-09-21T14:47:13;0.57;;;0.50;;
45970;SDS011;31681;48.982;8.394;2022-09-21T15:00:05;0.70;;;0.55;;
45970;SDS011;31681;48.982;8.394;2022-09-21T15:02:38;1.38;;;0.75;;
45970;SDS011;31681;48.982;8.394;2022-09-21T15:18:41;1.10;;;0.65;;
45970;SDS011;31681;48.982;8.394;2022-09-21T15:21:17;1.77;;;0.47;;
45970;SDS011;31681;48.982;8.394;2022-09-21T15:23:45;0.57;;;0.50;;
45970;SDS011;31681;48.982;8.394;2022-09-21T15:26:23;0.80;;;0.33;;
45970;SDS011;31681;48.982;8.394;2022-09-21T15:28:53;0.43;;;0.30;;
45970;SDS011;31681;48.982;8.394;2022-09-21T15:31:19;1.48;;;0.40;;
45970;SDS011;31681;48.982;8.394;2022-09-21T15:33:45;0.63;;;0.40;;
45970;SDS011;31681;48.982;8.394;2022-09-21T15:36:12;1.20;;;0.40;;
45970;SDS011;31681;48.982;8.394;2022-09-21T15:38:37;1.02;;;0.47;;
45970;SDS011;31681;48.982;8.394;2022-09-21T15:41:03;0.70;;;0.30;;
45970;SDS011;31681;48.982;8.394;2022-09-21T15:43:29;0.60;;;0.60;;
45970;SDS011;31681;48.982;8.394;2022-09-21T15:48:32;0.30;;;0.30;;
45970;SDS011;31681;48.982;8.394;2022-09-21T15:51:19;0.55;;;0.45;;
45970;SDS011;31681;48.982;8.394;2022-09-21T15:53:56;0.55;;;0.47;;
45970;SDS011;31681;48.982;8.394;2022-09-21T15:56:23;0.45;;;0.45;;
45970;SDS011;31681;48.982;8.394;2022-09-21T15:58:49;0.52;;;0.50;;
45970;SDS011;31681;48.982;8.394;2022-09-21T16:01:16;0.68;;;0.68;;
45970;SDS011;31681;48.982;8.394;2022-09-21T16:03:44;0.90;;;0.45;;
45970;SDS011;31681;48.982;8.394;2022-09-21T16:06:23;2.47;;;0.60;;
45970;SDS011;31681;48.982;8.394;2022-09-21T16:08:49;0.30;;;0.30;;
45970;SDS011;31681;48.982;8.394;2022-09-21T16:22:16;0.40;;;0.40;;
45970;SDS011;31681;48.982;8.394;2022-09-21T16:24:56;1.02;;;0.57;;
45970;SDS011;31681;48.982;8.394;2022-09-21T16:27:24;1.70;;;0.40;;
45970;SDS011;31681;48.982;8.394;2022-09-21T16:29:51;0.75;;;0.40;;
45970;SDS011;31681;48.982;8.394;2022-09-21T16:34:42;0.50;;;0.50;;
45970;SDS011;31681;48.982;8.394;2022-09-21T16:39:58;0.65;;;0.60;;
45970;SDS011;31681;48.982;8.394;2022-09-21T16:42:26;1.30;;;0.60;;
45970;SDS011;31681;48.982;8.394;2022-09-21T16:44:52;0.40;;;0.38;;
45970;SDS011;31681;48.982;8.394;2022-09-21T16:47:22;0.52;;;0.50;;
45970;SDS011;31681;48.982;8.394;2022-09-21T16:49:51;0.75;;;0.40;;
45970;SDS011;31681;48.982;8.394;2022-09-21T16:52:21;2.25;;;0.70;;
45970;SDS011;31681;48.982;8.394;2022-09-21T16:54:47;1.20;;;0.90;;
45970;SDS011;31681;48.982;8.394;2022-09-21T16:57:13;2.03;;;0.75;;
45970;SDS011;31681;48.982;8.394;2022-09-21T16:59:39;2.10;;;0.80;;
45970;SDS011;31681;48.982;8.394;2022-09-21T17:02:04;0.70;;;0.70;;
45970;SDS011;31681;48.982;8.394;2022-09-21T17:04:30;1.02;;;0.70;;
45970;SDS011;31681;48.982;8.394;2022-09-21T17:06:56;1.13;;;0.63;;
45970;SDS011;31681;48.982;8.394;2022-09-21T17:11:47;0.70;;;0.50;;
45970;SDS011;31681;48.982;8.394;2022-09-21T17:14:12;2.42;;;1.02;;
45970;SDS011;31681;48.982;8.394;2022-09-21T17:16:43;1.23;;;0.50;;
45970;SDS011;31681;48.982;8.394;2022-09-21T17:19:09;1.48;;;0.70;;
45970;SDS011;31681;48.982;8.394;2022-09-21T17:21:35;0.75;;;0.60;;
45970;SDS011;31681;48.982;8.394;2022-09-21T17:24:00;1.77;;;1.10;;
45970;SDS011;31681;48.982;8.394;2022-09-21T17:26:25;0.65;;;0.65;;
45970;SDS011;31681;48.982;8.394;2022-09-21T17:28:52;1.73;;;0.98;;
45970;SDS011;31681;48.982;8.394;2022-09-21T17:31:17;0.60;;;0.60;;
45970;SDS011;31681;48.982;8.394;2022-09-21T17:33:47;3.10;;;2.08;;
45970;SDS011;31681;48.982;8.394;2022-09-21T17:36:14;6.68;;;2.45;;
45970;SDS011;31681;48.982;8.394;2022-09-21T17:38:40;3.40;;;1.90;;
45970;SDS011;31681;48.982;8.394;2022-09-21T17:41:12;4.38;;;2.10;;
45970;SDS011;31681;48.982;8.394;2022-09-21T17:43:45;1.10;;;1.00;;
45970;SDS011;31681;48.982;8.394;2022-09-21T17:46:29;1.23;;;0.85;;
45970;SDS011;31681;48.982;8.394;2022-09-21T17:48:55;0.98;;;0.70;;
45970;SDS011;31681;48.982;8.394;2022-09-21T17:51:21;0.63;;;0.60;;
45970;SDS011;31681;48.982;8.394;2022-09-21T17:54:05;1.20;;;0.82;;
45970;SDS011;31681;48.982;8.394;2022-09-21T17:56:35;1.30;;;0.82;;
45970;SDS011;31681;48.982;8.394;2022-09-21T17:59:04;7.35;;;3.95;;